Kezdőlap
METAR-TAF:

METAR-TAF

Repülőterek :

Marshfield Municipal Airport

Marshfield, Wisconsin, Amerikai Egyesült Államok

földrajzi szélesség: 44-38-17N, földrajzi hosszúság: 090-11-15W, magasság: 389 m

Jelenlegi meteorológiai megfigyelések

A jelentés 27 perccel ezelõtt készült, 17:54 UTC
Keleti szél 7 kt
Hőmérséklet 8°C
Páratartalom 66%
Légköri nyomás 1018 hPa
Látótávolság: 16.1 km
Szórványos felhőzet 2200 lábon

METAR: KMFI 011754Z AUTO 10007KT 10SM SCT022 08/02 A3006 RMK AO2 SLP189 T00830017 10083 21006 58010

Idő: 13:21 (18:21 UTC)


TAF: hiányzik

Meteorológiai megfigyelések és előrejelzések több, mint 4000 repülőtéren (METAR és TAF jelentéseket).

A térképen piros és sárga pontok jelzik az elérhető meteorológiai állomásokat.

Mozgassa az egeret a pont fölött, hogy megjelenjen az állomás neve.

Azután kattintson az időjárási megfigyelések és előrejelzések megtekintéséhez.

A térkép megváltoztatása: kattintson a fekete keresztel jelölt zöld gombra ráközelítéshez, a vonallal jelölt zöld gombra távolításhoz, vagy a zöld nyilakra a szomszédos térképek eléréséhez.


METAR-TAF: